Time;durP1;ratioP1;P1;durP2;ratioP2;P2;SDS_P1;SDS_P2;PMS_P1;PMS_P2;Temp;Humidity;BMP_temperature;BMP_pressure;BME280_temperature;BME280_humidity;BME280_pressure;Samples;Min_cycle;Max_cycle;Signal;HPM_P1;HPM_P2
2022/12/07 00:00:15;;;;;;;7.80;7.07;;;;;;;;;;5035389;28;20216;-69
2022/12/07 00:02:41;;;;;;;7.53;6.72;;;;;;;;;;5035454;28;20240;-69
2022/12/07 00:05:08;;;;;;;7.50;6.80;;;;;;;;;;5035132;28;20216;-69
2022/12/07 00:07:34;;;;;;;6.90;6.20;;;;;;;;;;5034874;28;20251;-69
2022/12/07 00:10:01;;;;;;;7.93;7.18;;;;;;;;;;5035445;28;20237;-69
2022/12/07 00:12:27;;;;;;;9.52;6.63;;;;;;;;;;5035120;28;20217;-69
2022/12/07 00:14:55;;;;;;;7.72;6.90;;;;;;;;;;5035393;28;20209;-69
2022/12/07 00:17:21;;;;;;;6.70;6.15;;;;;;;;;;5034795;28;20210;-69
2022/12/07 00:19:48;;;;;;;7.47;6.78;;;;;;;;;;5035151;28;20415;-69
2022/12/07 00:22:14;;;;;;;7.72;6.78;;;;;;;;;;5035494;28;20222;-69
2022/12/07 00:24:40;;;;;;;7.97;6.75;;;;;;;;;;5035757;28;20536;-70
2022/12/07 00:27:07;;;;;;;8.10;6.65;;;;;;;;;;5035089;28;20202;-69
2022/12/07 00:29:33;;;;;;;8.85;6.05;;;;;;;;;;5035112;28;20202;-69
2022/12/07 00:32:04;;;;;;;6.28;5.78;;;;;;;;;;5035594;28;20245;-69
2022/12/07 00:34:30;;;;;;;7.60;6.70;;;;;;;;;;5035411;28;20213;-69
2022/12/07 00:36:57;;;;;;;7.35;6.55;;;;;;;;;;5035207;28;20241;-69
2022/12/07 00:39:23;;;;;;;7.70;6.47;;;;;;;;;;5034740;28;20418;-69
2022/12/07 00:41:49;;;;;;;7.10;6.40;;;;;;;;;;5034881;28;20271;-69
2022/12/07 00:44:16;;;;;;;7.13;6.45;;;;;;;;;;5034902;28;20210;-69
2022/12/07 00:46:42;;;;;;;6.70;6.10;;;;;;;;;;5035278;28;20489;-69
2022/12/07 00:49:10;;;;;;;7.80;7.05;;;;;;;;;;5034923;28;20225;-69
2022/12/07 00:51:36;;;;;;;8.23;7.45;;;;;;;;;;5033765;28;20210;-69
2022/12/07 00:54:03;;;;;;;9.98;7.80;;;;;;;;;;5035339;28;20214;-69
2022/12/07 00:56:29;;;;;;;9.55;7.53;;;;;;;;;;5034728;28;20241;-69
2022/12/07 00:58:57;;;;;;;8.57;7.78;;;;;;;;;;5034447;28;20466;-69
2022/12/07 01:01:23;;;;;;;8.35;7.55;;;;;;;;;;5034982;28;20544;-69
2022/12/07 01:03:50;;;;;;;7.60;6.95;;;;;;;;;;5034685;28;20297;-69
2022/12/07 01:06:18;;;;;;;7.93;7.10;;;;;;;;;;5034600;27;20305;-69
2022/12/07 01:08:45;;;;;;;10.38;7.90;;;;;;;;;;5034118;28;20237;-69
2022/12/07 01:11:12;;;;;;;7.97;7.18;;;;;;;;;;5034664;28;20300;-69
2022/12/07 01:13:39;;;;;;;8.48;7.68;;;;;;;;;;5034731;28;20206;-69
2022/12/07 01:16:06;;;;;;;8.15;7.35;;;;;;;;;;5034736;28;20459;-69
2022/12/07 01:18:34;;;;;;;7.60;7.00;;;;;;;;;;5034372;28;20248;-69
2022/12/07 01:21:01;;;;;;;7.35;6.60;;;;;;;;;;5035021;28;20477;-69
2022/12/07 01:23:29;;;;;;;9.85;7.35;;;;;;;;;;5034381;28;20537;-69
2022/12/07 01:25:56;;;;;;;8.32;7.63;;;;;;;;;;5034410;28;20530;-69
2022/12/07 01:28:22;;;;;;;8.25;7.10;;;;;;;;;;5033869;28;20293;-69
2022/12/07 01:30:55;;;;;;;8.27;7.47;;;;;;;;;;5034314;28;20277;-69
2022/12/07 01:33:21;;;;;;;8.43;7.65;;;;;;;;;;5034160;28;20589;-69
2022/12/07 01:35:48;;;;;;;8.57;7.35;;;;;;;;;;5034134;28;20202;-69
2022/12/07 01:38:14;;;;;;;7.50;6.70;;;;;;;;;;5033607;28;20336;-69
2022/12/07 01:40:42;;;;;;;8.20;7.40;;;;;;;;;;5034117;28;20237;-69
2022/12/07 01:43:14;;;;;;;9.85;7.05;;;;;;;;;;5033723;28;20320;-69
2022/12/07 01:45:41;;;;;;;8.13;7.32;;;;;;;;;;5034233;28;20475;-69
2022/12/07 01:48:08;;;;;;;8.40;7.55;;;;;;;;;;5033359;28;20513;-69
2022/12/07 01:50:35;;;;;;;7.50;6.80;;;;;;;;;;5034068;28;20277;-69
2022/12/07 01:53:03;;;;;;;9.25;8.27;;;;;;;;;;5034247;28;20233;-69
2022/12/07 01:55:30;;;;;;;8.75;7.47;;;;;;;;;;5033954;28;20248;-69
2022/12/07 01:57:57;;;;;;;8.82;7.22;;;;;;;;;;5033711;28;20210;-68
2022/12/07 02:00:24;;;;;;;8.73;7.93;;;;;;;;;;5034383;28;20281;-69
2022/12/07 02:02:54;;;;;;;9.38;8.45;;;;;;;;;;5033804;28;20592;-69
2022/12/07 02:05:20;;;;;;;9.32;7.95;;;;;;;;;;5034198;28;20327;-69
2022/12/07 02:07:48;;;;;;;9.38;8.40;;;;;;;;;;5033264;28;20656;-69
2022/12/07 02:10:15;;;;;;;9.32;8.35;;;;;;;;;;5033931;28;20376;-69
2022/12/07 02:12:42;;;;;;;9.23;8.30;;;;;;;;;;5033589;28;20272;-69
2022/12/07 02:15:10;;;;;;;9.73;8.60;;;;;;;;;;5033685;28;20249;-69
2022/12/07 02:17:42;;;;;;;11.90;8.65;;;;;;;;;;5033014;28;20210;-69
2022/12/07 02:20:18;;;;;;;11.55;8.80;;;;;;;;;;5033728;28;20252;-69
2022/12/07 02:23:09;;;;;;;9.98;8.77;;;;;;;;;;5033698;28;20229;-69
2022/12/07 02:25:43;;;;;;;9.00;8.02;;;;;;;;;;5044601;28;20209;-69
2022/12/07 02:28:13;;;;;;;9.25;8.15;;;;;;;;;;5032777;28;20232;-69
2022/12/07 02:30:43;;;;;;;9.73;7.97;;;;;;;;;;5033507;28;20214;-69
2022/12/07 02:33:14;;;;;;;9.57;8.25;;;;;;;;;;5033776;28;20205;-69
2022/12/07 02:35:41;;;;;;;10.40;9.38;;;;;;;;;;5033705;28;20209;-69
2022/12/07 02:38:12;;;;;;;9.90;8.82;;;;;;;;;;5032929;28;20281;-69
2022/12/07 02:40:40;;;;;;;9.18;8.00;;;;;;;;;;5033357;28;20202;-69
2022/12/07 02:43:10;;;;;;;9.68;8.35;;;;;;;;;;5033506;28;20563;-69
2022/12/07 02:45:38;;;;;;;9.80;8.63;;;;;;;;;;5033501;28;20268;-69
2022/12/07 02:48:07;;;;;;;9.23;8.00;;;;;;;;;;5025600;28;20438;-69
2022/12/07 02:50:33;;;;;;;9.20;7.75;;;;;;;;;;5032663;28;20409;-69
2022/12/07 02:52:59;;;;;;;8.98;8.07;;;;;;;;;;5033368;28;20569;-69
2022/12/07 02:55:28;;;;;;;10.00;8.05;;;;;;;;;;5033410;28;20216;-69
2022/12/07 02:58:01;;;;;;;8.90;8.00;;;;;;;;;;5032648;28;20248;-69
2022/12/07 03:00:27;;;;;;;9.25;8.18;;;;;;;;;;5033136;28;20210;-69
2022/12/07 03:02:57;;;;;;;11.77;8.95;;;;;;;;;;5032456;28;20587;-69
2022/12/07 03:05:32;;;;;;;10.23;8.50;;;;;;;;;;5033131;28;20309;-69
2022/12/07 03:08:02;;;;;;;9.18;8.27;;;;;;;;;;5032304;28;20241;-69
2022/12/07 03:10:31;;;;;;;11.23;9.02;;;;;;;;;;5032927;28;20210;-69
2022/12/07 03:13:03;;;;;;;9.95;8.30;;;;;;;;;;5032789;28;20209;-69
2022/12/07 03:15:32;;;;;;;9.07;8.18;;;;;;;;;;5034651;28;20498;-69
2022/12/07 03:17:59;;;;;;;10.60;7.80;;;;;;;;;;5035840;28;20407;-69
2022/12/07 03:20:26;;;;;;;11.10;8.45;;;;;;;;;;5036440;28;20418;-69
2022/12/07 03:22:54;;;;;;;10.43;9.05;;;;;;;;;;5036327;28;20230;-69
2022/12/07 03:25:21;;;;;;;9.60;8.18;;;;;;;;;;5036271;28;20210;-69
2022/12/07 03:27:51;;;;;;;12.93;9.48;;;;;;;;;;5035720;28;20234;-69
2022/12/07 03:30:19;;;;;;;12.38;9.15;;;;;;;;;;5036330;28;20440;-69
2022/12/07 03:32:48;;;;;;;9.65;8.00;;;;;;;;;;5036211;28;20209;-69
2022/12/07 03:35:17;;;;;;;10.23;8.98;;;;;;;;;;5036325;28;20526;-69
2022/12/07 03:37:46;;;;;;;14.98;9.18;;;;;;;;;;5035714;28;20516;-69
2022/12/07 03:40:17;;;;;;;11.18;8.40;;;;;;;;;;5036100;28;20210;-69
2022/12/07 03:42:43;;;;;;;9.40;8.18;;;;;;;;;;5035916;28;20563;-69
2022/12/07 03:45:10;;;;;;;9.13;8.18;;;;;;;;;;5035596;28;20515;-69
2022/12/07 03:47:40;;;;;;;9.52;8.50;;;;;;;;;;5035579;28;20216;-69
2022/12/07 03:50:08;;;;;;;9.35;8.43;;;;;;;;;;5035854;28;20217;-69
2022/12/07 03:52:36;;;;;;;10.43;8.60;;;;;;;;;;5035910;28;20473;-69
2022/12/07 03:55:06;;;;;;;9.50;8.60;;;;;;;;;;5035892;28;20206;-69
2022/12/07 03:57:34;;;;;;;10.02;8.68;;;;;;;;;;5035603;28;20245;-69
2022/12/07 04:00:01;;;;;;;11.32;8.65;;;;;;;;;;5035847;28;20263;-69
2022/12/07 04:02:28;;;;;;;11.75;9.45;;;;;;;;;;5036051;28;20209;-69
2022/12/07 04:04:55;;;;;;;9.20;8.20;;;;;;;;;;5035881;28;20416;-69
2022/12/07 04:07:21;;;;;;;9.60;7.85;;;;;;;;;;5035076;28;20205;-69
2022/12/07 04:09:47;;;;;;;12.05;8.07;;;;;;;;;;5035373;28;20214;-69
2022/12/07 04:12:13;;;;;;;9.48;8.50;;;;;;;;;;5035817;27;20285;-70
2022/12/07 04:14:41;;;;;;;8.98;8.07;;;;;;;;;;5035678;28;20560;-69
2022/12/07 04:17:07;;;;;;;9.68;7.97;;;;;;;;;;5035462;28;20209;-69
2022/12/07 04:19:34;;;;;;;8.82;7.93;;;;;;;;;;5035440;28;20233;-69
2022/12/07 04:22:01;;;;;;;9.98;8.40;;;;;;;;;;5035845;28;20210;-69
2022/12/07 04:24:28;;;;;;;10.18;8.05;;;;;;;;;;5035598;28;20593;-69
2022/12/07 04:26:55;;;;;;;10.07;7.13;;;;;;;;;;5035122;28;20209;-69
2022/12/07 04:29:21;;;;;;;9.13;8.00;;;;;;;;;;5035237;28;20222;-69
2022/12/07 04:31:49;;;;;;;9.25;7.70;;;;;;;;;;5035364;28;20212;-69
2022/12/07 04:34:16;;;;;;;11.05;7.57;;;;;;;;;;5035318;28;20213;-69
2022/12/07 04:36:43;;;;;;;8.77;7.63;;;;;;;;;;5034705;28;20393;-69
2022/12/07 04:39:14;;;;;;;13.07;7.93;;;;;;;;;;5034548;28;20218;-69
2022/12/07 04:41:41;;;;;;;7.78;6.97;;;;;;;;;;5035068;28;20380;-69
2022/12/07 04:44:07;;;;;;;8.35;7.50;;;;;;;;;;5034958;28;20225;-69
2022/12/07 04:46:34;;;;;;;9.50;8.10;;;;;;;;;;5034660;28;20233;-69
2022/12/07 04:49:01;;;;;;;8.07;7.25;;;;;;;;;;5034273;28;20216;-69
2022/12/07 04:51:29;;;;;;;8.35;7.55;;;;;;;;;;5034835;28;20209;-69
2022/12/07 04:53:56;;;;;;;10.43;8.45;;;;;;;;;;5034680;28;20205;-69
2022/12/07 04:56:23;;;;;;;8.23;7.38;;;;;;;;;;5035078;28;20221;-69
2022/12/07 04:58:49;;;;;;;8.50;7.68;;;;;;;;;;5034723;28;20210;-69
2022/12/07 05:01:17;;;;;;;9.40;8.32;;;;;;;;;;5035659;28;20479;-69
2022/12/07 05:03:43;;;;;;;9.70;8.65;;;;;;;;;;5034828;28;20567;-69
2022/12/07 05:06:11;;;;;;;10.90;8.65;;;;;;;;;;5034906;28;20210;-69
2022/12/07 05:08:38;;;;;;;10.15;8.25;;;;;;;;;;5034300;28;20217;-69
2022/12/07 05:11:04;;;;;;;9.75;8.70;;;;;;;;;;5034688;28;20210;-69
2022/12/07 05:13:31;;;;;;;9.48;8.35;;;;;;;;;;5034703;28;20206;-69
2022/12/07 05:15:57;;;;;;;9.88;8.35;;;;;;;;;;5034547;28;20216;-69
2022/12/07 05:18:23;;;;;;;9.80;8.65;;;;;;;;;;5033968;28;20530;-69
2022/12/07 05:20:50;;;;;;;13.35;10.00;;;;;;;;;;5034251;28;20217;-69
2022/12/07 05:23:18;;;;;;;14.48;9.52;;;;;;;;;;5034286;28;20440;-69
2022/12/07 05:25:46;;;;;;;16.75;10.55;;;;;;;;;;5034260;28;20217;-69
2022/12/07 05:28:12;;;;;;;12.43;9.80;;;;;;;;;;5033979;28;20234;-69
2022/12/07 05:30:39;;;;;;;15.25;10.88;;;;;;;;;;5034808;28;20233;-69
2022/12/07 05:33:06;;;;;;;13.52;10.55;;;;;;;;;;5034064;28;20487;-69
2022/12/07 05:35:32;;;;;;;12.50;9.55;;;;;;;;;;5034168;28;20540;-69
2022/12/07 05:37:58;;;;;;;13.88;10.45;;;;;;;;;;5033089;28;20210;-69
2022/12/07 05:40:26;;;;;;;12.70;10.25;;;;;;;;;;5034021;28;20531;-69
2022/12/07 05:42:52;;;;;;;13.80;9.82;;;;;;;;;;5034149;28;20217;-69
2022/12/07 05:45:19;;;;;;;10.80;8.88;;;;;;;;;;5033828;28;20253;-69
2022/12/07 05:47:45;;;;;;;11.98;9.90;;;;;;;;;;5034301;28;20416;-69
2022/12/07 05:50:11;;;;;;;12.27;10.07;;;;;;;;;;5034134;28;20216;-69
2022/12/07 05:52:37;;;;;;;13.07;9.98;;;;;;;;;;5034417;28;20210;-69
2022/12/07 05:55:04;;;;;;;12.75;10.30;;;;;;;;;;5034543;28;20509;-69
2022/12/07 05:57:32;;;;;;;12.80;9.75;;;;;;;;;;5033913;28;20213;-69
2022/12/07 05:59:57;;;;;;;13.35;10.52;;;;;;;;;;5033756;28;20481;-69
2022/12/07 06:02:23;;;;;;;15.13;10.60;;;;;;;;;;5033947;27;20541;-69
2022/12/07 06:04:49;;;;;;;13.60;10.25;;;;;;;;;;5033791;28;20225;-69
2022/12/07 06:07:17;;;;;;;13.48;10.60;;;;;;;;;;5033387;28;20210;-69
2022/12/07 06:09:43;;;;;;;12.35;10.60;;;;;;;;;;5033409;28;20210;-69
2022/12/07 06:14:55;;;;;;;12.20;10.15;;;;;;;;;;5034094;28;20264;-69
2022/12/07 06:17:21;;;;;;;13.48;10.95;;;;;;;;;;5033337;28;20202;-69
2022/12/07 06:19:47;;;;;;;13.50;10.75;;;;;;;;;;5033332;28;20218;-69
2022/12/07 06:22:13;;;;;;;12.55;9.40;;;;;;;;;;5033519;28;20396;-69
2022/12/07 06:24:40;;;;;;;14.85;11.48;;;;;;;;;;5033345;28;20229;-69
2022/12/07 06:27:07;;;;;;;13.20;9.98;;;;;;;;;;5033250;28;20402;-69
2022/12/07 06:29:33;;;;;;;14.35;10.85;;;;;;;;;;5033498;28;20213;-69
2022/12/07 06:32:01;;;;;;;12.85;10.45;;;;;;;;;;5033871;28;20217;-69
2022/12/07 06:34:28;;;;;;;13.27;9.77;;;;;;;;;;5034114;28;20202;-69
2022/12/07 06:36:54;;;;;;;13.38;10.70;;;;;;;;;;5033683;28;20224;-69
2022/12/07 06:39:22;;;;;;;14.30;10.05;;;;;;;;;;5033041;28;20304;-71
2022/12/07 06:41:49;;;;;;;13.73;10.57;;;;;;;;;;5033489;28;20206;-71
2022/12/07 06:44:15;;;;;;;13.20;10.18;;;;;;;;;;5033278;28;20476;-71
2022/12/07 06:46:41;;;;;;;13.07;10.85;;;;;;;;;;5033141;28;20525;-71
2022/12/07 06:49:09;;;;;;;18.60;10.52;;;;;;;;;;5034051;28;20478;-71
2022/12/07 06:51:36;;;;;;;13.18;10.27;;;;;;;;;;5036782;28;20213;-71
2022/12/07 06:54:02;;;;;;;13.50;9.75;;;;;;;;;;5036736;28;20241;-71
2022/12/07 06:56:29;;;;;;;13.30;10.95;;;;;;;;;;5036389;28;20443;-71
2022/12/07 06:58:55;;;;;;;10.93;9.30;;;;;;;;;;5036267;28;20566;-58
2022/12/07 07:01:21;;;;;;;18.20;11.95;;;;;;;;;;5034045;28;20206;-57
2022/12/07 07:03:49;;;;;;;11.45;9.63;;;;;;;;;;5025072;28;20219;-58
2022/12/07 07:06:17;;;;;;;13.38;10.13;;;;;;;;;;5016964;28;20244;-57
2022/12/07 07:08:43;;;;;;;10.35;9.25;;;;;;;;;;5029348;28;20220;-59
2022/12/07 07:11:10;;;;;;;12.23;10.18;;;;;;;;;;5036574;28;20210;-58
2022/12/07 07:13:37;;;;;;;11.52;9.55;;;;;;;;;;5036374;28;20209;-58
2022/12/07 07:16:03;;;;;;;11.05;9.45;;;;;;;;;;5036537;28;20209;-58
2022/12/07 07:18:29;;;;;;;10.77;9.63;;;;;;;;;;5035965;28;20210;-59
2022/12/07 07:20:56;;;;;;;13.13;9.95;;;;;;;;;;5035394;28;20222;-59
2022/12/07 07:23:23;;;;;;;13.35;9.88;;;;;;;;;;5032220;28;20210;-58
2022/12/07 07:25:50;;;;;;;12.35;10.13;;;;;;;;;;5032759;28;20398;-59
2022/12/07 07:28:16;;;;;;;10.40;9.15;;;;;;;;;;5032716;28;20234;-61
2022/12/07 07:30:43;;;;;;;11.38;9.60;;;;;;;;;;5029435;28;20213;-61
2022/12/07 07:33:10;;;;;;;13.15;9.23;;;;;;;;;;5030370;28;20483;-61
2022/12/07 07:35:37;;;;;;;11.90;9.77;;;;;;;;;;5032887;28;20213;-61
2022/12/07 07:38:03;;;;;;;11.05;9.35;;;;;;;;;;5032199;28;20540;-61
2022/12/07 07:40:31;;;;;;;13.73;9.45;;;;;;;;;;5033320;28;20209;-61
2022/12/07 07:42:58;;;;;;;11.38;10.18;;;;;;;;;;5033209;28;20214;-61
2022/12/07 07:45:25;;;;;;;10.38;9.00;;;;;;;;;;5032529;28;20432;-61
2022/12/07 07:47:51;;;;;;;12.70;9.35;;;;;;;;;;5032649;28;20210;-61
2022/12/07 07:50:18;;;;;;;10.43;8.90;;;;;;;;;;5032471;28;20213;-61
2022/12/07 07:52:44;;;;;;;10.18;8.95;;;;;;;;;;5033018;28;20235;-61
2022/12/07 07:55:11;;;;;;;11.43;9.02;;;;;;;;;;5033328;28;20206;-62
2022/12/07 07:57:40;;;;;;;11.98;8.93;;;;;;;;;;5033688;28;20206;-60
2022/12/07 08:00:07;;;;;;;12.18;9.25;;;;;;;;;;5032570;28;20290;-60
2022/12/07 08:02:33;;;;;;;10.98;9.50;;;;;;;;;;5032978;28;20213;-60
2022/12/07 08:05:00;;;;;;;12.57;9.65;;;;;;;;;;5033148;28;20591;-61
2022/12/07 08:07:27;;;;;;;10.85;9.48;;;;;;;;;;5032674;28;20220;-60
2022/12/07 08:09:53;;;;;;;13.90;10.63;;;;;;;;;;5032636;28;20440;-60
2022/12/07 08:12:20;;;;;;;11.25;10.05;;;;;;;;;;5032668;28;20202;-60
2022/12/07 08:14:47;;;;;;;13.98;10.02;;;;;;;;;;5032675;28;20237;-60
2022/12/07 08:17:14;;;;;;;14.65;10.35;;;;;;;;;;5031389;28;20214;-60
2022/12/07 08:19:40;;;;;;;16.75;10.70;;;;;;;;;;5031737;28;20248;-60
2022/12/07 08:22:06;;;;;;;12.05;9.95;;;;;;;;;;5031793;28;20220;-60
2022/12/07 08:24:34;;;;;;;13.20;9.63;;;;;;;;;;5031591;28;20229;-57
2022/12/07 08:27:00;;;;;;;11.05;9.48;;;;;;;;;;5029323;28;20214;-57
2022/12/07 08:29:26;;;;;;;11.32;8.60;;;;;;;;;;5032086;28;20567;-57
2022/12/07 08:31:54;;;;;;;9.93;8.90;;;;;;;;;;5032359;28;20218;-57
2022/12/07 08:34:20;;;;;;;13.30;8.88;;;;;;;;;;5032835;28;20404;-57
2022/12/07 08:36:46;;;;;;;8.82;7.93;;;;;;;;;;5032154;28;20213;-57
2022/12/07 08:39:13;;;;;;;10.52;8.63;;;;;;;;;;5033050;28;20220;-58
2022/12/07 08:41:39;;;;;;;9.55;8.07;;;;;;;;;;5033110;28;20427;-58
2022/12/07 08:44:05;;;;;;;9.40;7.82;;;;;;;;;;5033517;28;20233;-58
2022/12/07 08:46:34;;;;;;;8.82;7.68;;;;;;;;;;5034073;28;20210;-58
2022/12/07 08:49:05;;;;;;;9.75;8.70;;;;;;;;;;5033449;28;20284;-58
2022/12/07 08:51:31;;;;;;;9.55;7.72;;;;;;;;;;5034554;28;20400;-58
2022/12/07 08:53:58;;;;;;;9.48;7.45;;;;;;;;;;5034572;28;20210;-58
2022/12/07 08:56:25;;;;;;;8.45;7.53;;;;;;;;;;5032689;28;20213;-58
2022/12/07 08:58:52;;;;;;;8.65;7.82;;;;;;;;;;5032838;28;20214;-58
2022/12/07 09:01:19;;;;;;;9.35;7.85;;;;;;;;;;5033686;28;20202;-58
2022/12/07 09:03:45;;;;;;;9.63;8.40;;;;;;;;;;5033735;28;20417;-58
2022/12/07 09:06:13;;;;;;;8.95;6.95;;;;;;;;;;5033691;28;20225;-58
2022/12/07 09:08:41;;;;;;;8.27;7.43;;;;;;;;;;5032714;28;20224;-58
2022/12/07 09:11:07;;;;;;;12.15;7.30;;;;;;;;;;5033216;28;20551;-58
2022/12/07 09:13:33;;;;;;;9.65;7.43;;;;;;;;;;5032449;28;20220;-58
2022/12/07 09:16:00;;;;;;;9.82;7.72;;;;;;;;;;5033105;28;20429;-57
2022/12/07 09:18:27;;;;;;;8.95;7.95;;;;;;;;;;5033092;28;20214;-57
2022/12/07 09:20:53;;;;;;;8.50;7.65;;;;;;;;;;5033307;28;20445;-58
2022/12/07 09:23:21;;;;;;;7.40;6.70;;;;;;;;;;5032726;28;20418;-58
2022/12/07 09:25:47;;;;;;;8.32;7.53;;;;;;;;;;5032866;28;20579;-57
2022/12/07 09:28:13;;;;;;;9.02;7.32;;;;;;;;;;5032337;28;20226;-58
2022/12/07 09:30:39;;;;;;;11.57;6.88;;;;;;;;;;5032808;28;20343;-58
2022/12/07 09:33:06;;;;;;;8.07;6.55;;;;;;;;;;5032082;28;20221;-57
2022/12/07 09:35:32;;;;;;;7.68;6.88;;;;;;;;;;5033035;28;20368;-57
2022/12/07 09:37:58;;;;;;;6.78;6.07;;;;;;;;;;5030338;28;20284;-57
2022/12/07 09:40:26;;;;;;;7.35;6.65;;;;;;;;;;5032113;28;20428;-57
2022/12/07 09:42:54;;;;;;;7.22;6.53;;;;;;;;;;5033500;28;20218;-57
2022/12/07 09:45:23;;;;;;;7.22;6.30;;;;;;;;;;5032471;27;20323;-57
2022/12/07 09:47:49;;;;;;;7.55;5.50;;;;;;;;;;5030003;28;20213;-57
2022/12/07 09:50:17;;;;;;;6.63;6.03;;;;;;;;;;5033224;28;20213;-57
2022/12/07 09:52:44;;;;;;;7.35;6.65;;;;;;;;;;5032823;28;20529;-57
2022/12/07 09:55:12;;;;;;;7.18;6.47;;;;;;;;;;5032463;28;20284;-55
2022/12/07 09:57:40;;;;;;;6.80;6.20;;;;;;;;;;5032572;28;20206;-57
2022/12/07 10:00:11;;;;;;;7.72;6.93;;;;;;;;;;5031643;28;20339;-57
2022/12/07 10:02:38;;;;;;;6.78;6.07;;;;;;;;;;5032547;28;20303;-57
2022/12/07 10:05:05;;;;;;;7.45;6.05;;;;;;;;;;5032446;28;20229;-57
2022/12/07 10:07:32;;;;;;;9.02;6.25;;;;;;;;;;5031587;28;20214;-57
2022/12/07 10:09:58;;;;;;;8.63;6.75;;;;;;;;;;5032386;28;20216;-56
2022/12/07 10:12:24;;;;;;;6.25;5.65;;;;;;;;;;5032565;28;20435;-57
2022/12/07 10:14:57;;;;;;;7.18;5.95;;;;;;;;;;5032090;28;20202;-58
2022/12/07 10:17:29;;;;;;;6.18;5.57;;;;;;;;;;5032406;28;20221;-57
2022/12/07 10:20:08;;;;;;;6.28;5.78;;;;;;;;;;5031788;28;20591;-57
2022/12/07 10:22:35;;;;;;;6.88;6.13;;;;;;;;;;5032106;28;20212;-56
2022/12/07 10:25:08;;;;;;;6.63;5.50;;;;;;;;;;5031806;28;20559;-57
2022/12/07 10:27:34;;;;;;;5.80;5.28;;;;;;;;;;5030527;28;20226;-56
2022/12/07 10:30:08;;;;;;;8.07;5.30;;;;;;;;;;5031196;28;20235;-55
2022/12/07 10:32:35;;;;;;;7.68;6.45;;;;;;;;;;5031760;28;20250;-57
2022/12/07 10:35:19;;;;;;;11.15;6.20;;;;;;;;;;5028628;28;20198;-57
2022/12/07 10:37:46;;;;;;;8.43;5.85;;;;;;;;;;5020198;28;20214;-57
2022/12/07 10:40:24;;;;;;;6.40;5.47;;;;;;;;;;5011990;28;20206;-58
2022/12/07 10:43:01;;;;;;;8.65;6.50;;;;;;;;;;5028786;28;20705;-57
2022/12/07 10:45:28;;;;;;;6.45;5.85;;;;;;;;;;5030910;28;20233;-57
2022/12/07 10:48:01;;;;;;;8.73;6.80;;;;;;;;;;5031260;28;20214;-57
2022/12/07 10:50:39;;;;;;;7.50;6.25;;;;;;;;;;5032042;28;20673;-58
2022/12/07 10:53:12;;;;;;;9.48;6.95;;;;;;;;;;5031851;28;20221;-57
2022/12/07 10:55:47;;;;;;;6.38;5.65;;;;;;;;;;5031689;28;20518;-57
2022/12/07 10:58:20;;;;;;;5.70;5.10;;;;;;;;;;5031081;28;20236;-57
2022/12/07 11:00:53;;;;;;;6.88;5.72;;;;;;;;;;5030167;28;20417;-56
2022/12/07 11:03:27;;;;;;;9.77;5.93;;;;;;;;;;5031428;28;20220;-57
2022/12/07 11:05:56;;;;;;;6.20;5.60;;;;;;;;;;5032065;28;20305;-56
2022/12/07 11:08:30;;;;;;;6.93;5.63;;;;;;;;;;5030831;28;20469;-57
2022/12/07 11:11:01;;;;;;;6.20;5.40;;;;;;;;;;5031368;28;20213;-57
2022/12/07 11:13:29;;;;;;;6.15;5.53;;;;;;;;;;5031667;28;20440;-58
2022/12/07 11:16:13;;;;;;;8.38;6.07;;;;;;;;;;5031496;28;20280;-58
2022/12/07 11:18:46;;;;;;;7.63;5.88;;;;;;;;;;5030483;28;20285;-58
2022/12/07 11:21:16;;;;;;;6.63;5.25;;;;;;;;;;5031549;28;20222;-58
2022/12/07 11:23:47;;;;;;;8.25;5.43;;;;;;;;;;5031459;28;20220;-58
2022/12/07 11:26:17;;;;;;;6.03;5.45;;;;;;;;;;5030917;28;20225;-57
2022/12/07 11:28:58;;;;;;;8.70;6.47;;;;;;;;;;5030633;28;20233;-58
2022/12/07 11:31:29;;;;;;;5.45;4.82;;;;;;;;;;5031034;28;20213;-58
2022/12/07 11:34:00;;;;;;;7.82;5.72;;;;;;;;;;5030699;28;20217;-58
2022/12/07 11:36:37;;;;;;;7.07;6.38;;;;;;;;;;5032883;28;20223;-58
2022/12/07 11:39:07;;;;;;;10.75;4.93;;;;;;;;;;5033493;28;20441;-57
2022/12/07 11:41:36;;;;;;;7.60;6.28;;;;;;;;;;5034998;28;20209;-57
2022/12/07 11:44:06;;;;;;;6.03;5.43;;;;;;;;;;5034845;28;20210;-57
2022/12/07 11:46:40;;;;;;;5.75;5.15;;;;;;;;;;5034809;28;20236;-57
2022/12/07 11:49:11;;;;;;;8.82;5.82;;;;;;;;;;5034382;28;20464;-57
2022/12/07 11:51:38;;;;;;;8.40;5.57;;;;;;;;;;5034562;28;20241;-57
2022/12/07 11:54:12;;;;;;;5.90;5.40;;;;;;;;;;5034193;28;20516;-57
2022/12/07 11:56:38;;;;;;;11.18;6.55;;;;;;;;;;5034274;28;20510;-57
2022/12/07 11:59:10;;;;;;;6.10;5.50;;;;;;;;;;5033557;28;20373;-56
2022/12/07 12:01:40;;;;;;;7.55;5.72;;;;;;;;;;5033648;28;20439;-57
2022/12/07 12:04:17;;;;;;;6.90;5.90;;;;;;;;;;5034167;28;20606;-57
2022/12/07 12:06:45;;;;;;;7.22;5.95;;;;;;;;;;5033882;28;20565;-56
2022/12/07 12:09:13;;;;;;;6.10;5.50;;;;;;;;;;5032668;28;20241;-56
2022/12/07 12:11:48;;;;;;;5.28;4.88;;;;;;;;;;5034012;28;20517;-57
2022/12/07 12:14:22;;;;;;;6.40;5.13;;;;;;;;;;5034612;28;20225;-57
2022/12/07 12:16:56;;;;;;;6.22;5.38;;;;;;;;;;5033001;28;20201;-57
2022/12/07 12:19:33;;;;;;;5.43;4.93;;;;;;;;;;5034694;28;20213;-57
2022/12/07 12:22:04;;;;;;;5.80;5.25;;;;;;;;;;5034109;28;20217;-57
2022/12/07 12:24:36;;;;;;;7.03;5.40;;;;;;;;;;5034536;28;20216;-56
2022/12/07 12:27:03;;;;;;;5.95;5.45;;;;;;;;;;5033774;28;20269;-57
2022/12/07 12:29:32;;;;;;;6.43;5.65;;;;;;;;;;5033408;28;20222;-56
2022/12/07 12:32:06;;;;;;;8.13;6.22;;;;;;;;;;5033403;28;20220;-57
2022/12/07 12:34:41;;;;;;;6.80;5.40;;;;;;;;;;5034009;28;20221;-57
2022/12/07 12:37:28;;;;;;;7.53;5.70;;;;;;;;;;5034032;28;20401;-58
2022/12/07 12:40:13;;;;;;;6.47;5.85;;;;;;;;;;5020999;28;20214;-57
2022/12/07 12:42:44;;;;;;;8.10;5.22;;;;;;;;;;5033902;28;20206;-57
2022/12/07 12:45:21;;;;;;;7.68;5.38;;;;;;;;;;5033047;28;20528;-57
2022/12/07 12:47:55;;;;;;;6.90;4.80;;;;;;;;;;5033199;28;20225;-57
2022/12/07 12:50:24;;;;;;;4.57;4.18;;;;;;;;;;5033146;28;20218;-57
2022/12/07 12:52:52;;;;;;;4.38;3.97;;;;;;;;;;5033177;28;20220;-57
2022/12/07 12:55:21;;;;;;;3.88;3.55;;;;;;;;;;5032491;28;20535;-56
2022/12/07 12:57:48;;;;;;;4.60;4.18;;;;;;;;;;5036330;28;20202;-57
2022/12/07 13:00:20;;;;;;;5.15;4.68;;;;;;;;;;5036700;28;20407;-57
2022/12/07 13:02:50;;;;;;;5.35;4.57;;;;;;;;;;5036701;28;20206;-58
2022/12/07 13:05:18;;;;;;;5.13;4.63;;;;;;;;;;5037288;28;20213;-58
2022/12/07 13:07:53;;;;;;;6.22;5.15;;;;;;;;;;5036808;28;20537;-57
2022/12/07 13:10:22;;;;;;;7.47;6.10;;;;;;;;;;5037378;28;20205;-58
2022/12/07 13:12:55;;;;;;;7.60;6.80;;;;;;;;;;5036984;28;20206;-56
2022/12/07 13:15:32;;;;;;;7.50;6.22;;;;;;;;;;5036400;28;20559;-57
2022/12/07 13:18:00;;;;;;;9.35;6.05;;;;;;;;;;5036065;28;20272;-61
2022/12/07 13:20:43;;;;;;;5.78;5.38;;;;;;;;;;5036865;28;20220;-58
2022/12/07 13:23:13;;;;;;;6.63;5.75;;;;;;;;;;5036538;28;20548;-59
2022/12/07 13:25:44;;;;;;;5.60;5.20;;;;;;;;;;5036239;28;20225;-59
2022/12/07 13:28:13;;;;;;;5.70;5.10;;;;;;;;;;5036869;28;20230;-57
2022/12/07 13:30:44;;;;;;;5.55;5.15;;;;;;;;;;5036316;28;20536;-57
2022/12/07 13:33:10;;;;;;;7.03;6.15;;;;;;;;;;5036014;28;20210;-58
2022/12/07 13:35:38;;;;;;;6.90;5.10;;;;;;;;;;5036614;28;20237;-57
2022/12/07 13:38:05;;;;;;;6.15;5.13;;;;;;;;;;5036420;28;20528;-58
2022/12/07 13:40:33;;;;;;;6.25;5.75;;;;;;;;;;5036794;28;20667;-58
2022/12/07 13:43:01;;;;;;;5.63;5.13;;;;;;;;;;5037089;28;20214;-56
2022/12/07 13:45:47;;;;;;;5.85;5.35;;;;;;;;;;5036170;28;20506;-57
2022/12/07 13:48:15;;;;;;;6.25;5.75;;;;;;;;;;5036891;28;20233;-57
2022/12/07 13:50:41;;;;;;;5.60;5.10;;;;;;;;;;5036561;28;20529;-57
2022/12/07 13:53:12;;;;;;;7.65;5.38;;;;;;;;;;5036435;28;20564;-57
2022/12/07 13:55:44;;;;;;;5.57;5.05;;;;;;;;;;5036302;28;20348;-58
2022/12/07 13:58:11;;;;;;;8.57;6.05;;;;;;;;;;5034891;28;20244;-57
2022/12/07 14:00:37;;;;;;;8.88;6.03;;;;;;;;;;5035512;28;20335;-58
2022/12/07 14:03:05;;;;;;;6.35;5.75;;;;;;;;;;5035608;28;20241;-57
2022/12/07 14:05:32;;;;;;;8.85;5.55;;;;;;;;;;5035441;28;20555;-58
2022/12/07 14:07:59;;;;;;;6.70;5.50;;;;;;;;;;5035774;28;20440;-59
2022/12/07 14:10:26;;;;;;;6.75;5.70;;;;;;;;;;5036180;28;20562;-59
2022/12/07 14:12:54;;;;;;;5.97;5.35;;;;;;;;;;5035922;28;20374;-60
2022/12/07 14:15:22;;;;;;;5.82;5.28;;;;;;;;;;5035120;28;20548;-59
2022/12/07 14:17:52;;;;;;;6.50;5.78;;;;;;;;;;5035404;28;20201;-59
2022/12/07 14:20:32;;;;;;;7.80;5.60;;;;;;;;;;5036458;28;20317;-58
2022/12/07 14:22:58;;;;;;;7.80;6.00;;;;;;;;;;5035610;28;20288;-56
2022/12/07 14:25:26;;;;;;;5.97;5.47;;;;;;;;;;5035657;28;20252;-56
2022/12/07 14:27:58;;;;;;;6.60;5.53;;;;;;;;;;5035206;28;20274;-57
2022/12/07 14:30:25;;;;;;;5.25;4.75;;;;;;;;;;5035418;28;20209;-56
2022/12/07 14:32:53;;;;;;;5.75;5.18;;;;;;;;;;5034848;28;20232;-57
2022/12/07 14:35:19;;;;;;;4.85;4.50;;;;;;;;;;5035107;28;20241;-57
2022/12/07 14:37:46;;;;;;;7.13;5.65;;;;;;;;;;5034919;28;20244;-57
2022/12/07 14:40:14;;;;;;;6.10;5.35;;;;;;;;;;5035130;28;20410;-56
2022/12/07 14:42:40;;;;;;;7.97;6.25;;;;;;;;;;5026030;28;20245;-57
2022/12/07 14:45:13;;;;;;;6.28;5.68;;;;;;;;;;5034331;28;20206;-58
2022/12/07 14:47:40;;;;;;;6.35;5.80;;;;;;;;;;5034406;28;20270;-58